METAR Data

Data at: 2221 UTC 01 Dec 2021

METAR for:KCON (Concord Muni, NH, US)
Text:KCON 012151Z AUTO 00000KT 10SM CLR 01/M06 A3009 RMK AO2 SLP194 T00111061
Temperature: 1.1°C ( 34°F)
Dewpoint: -6.1°C ( 21°F) [RH = 59%]
Pressure (altimeter):30.09 inches Hg (1019.0 mb) [Sea level pressure: 1019.4 mb]
Winds:calm
Visibility:10 or more sm (16+ km)
Ceiling:at least 12,000 feet AGL
Clouds:sky clear below 12,000 feet AGL
QC Flag:automated observation with no human augmentation